Time;durP1;ratioP1;P1;durP2;ratioP2;P2;SDS_P1;SDS_P2;PMS_P1;PMS_P2;Temp;Humidity;BMP_temperature;BMP_pressure;BME280_temperature;BME280_humidity;BME280_pressure;Samples;Min_cycle;Max_cycle;Signal;HPM_P1;HPM_P2
2020/12/03 00:00:45;;;;;;;42.17;22.97;;;;;;;;;;5036628;28;20267;-74
2020/12/03 00:03:31;;;;;;;48.90;23.77;;;;;;;;;;5042370;28;20252;-74
2020/12/03 00:06:00;;;;;;;46.67;22.33;;;;;;;;;;5044329;28;20263;-75
2020/12/03 00:08:28;;;;;;;43.63;21.10;;;;;;;;;;5051900;28;20305;-76
2020/12/03 00:10:54;;;;;;;46.43;23.10;;;;;;;;;;5059896;28;20437;-74
2020/12/03 00:13:22;;;;;;;48.97;24.60;;;;;;;;;;5050917;28;20266;-76
2020/12/03 00:15:53;;;;;;;51.80;23.00;;;;;;;;;;5047847;28;20263;-75
2020/12/03 00:18:20;;;;;;;47.03;22.30;;;;;;;;;;5032867;28;20636;-75
2020/12/03 00:20:46;;;;;;;47.60;23.23;;;;;;;;;;5034568;28;20263;-76
2020/12/03 00:23:12;;;;;;;45.83;24.17;;;;;;;;;;5058109;28;20282;-76
2020/12/03 00:25:38;;;;;;;49.70;23.57;;;;;;;;;;5051160;28;20759;-75
2020/12/03 00:28:05;;;;;;;49.13;24.73;;;;;;;;;;5033975;28;20288;-75
2020/12/03 00:30:31;;;;;;;42.83;22.87;;;;;;;;;;5054808;28;20285;-75
2020/12/03 00:32:58;;;;;;;51.30;24.57;;;;;;;;;;5042728;28;20325;-74
2020/12/03 00:35:25;;;;;;;46.33;22.10;;;;;;;;;;5046894;28;20287;-75
2020/12/03 00:37:52;;;;;;;50.00;23.27;;;;;;;;;;5041339;28;20294;-76
2020/12/03 00:40:19;;;;;;;47.33;24.53;;;;;;;;;;5053640;28;20267;-76
2020/12/03 00:42:45;;;;;;;45.03;22.60;;;;;;;;;;5072100;28;20305;-76
2020/12/03 00:45:11;;;;;;;44.00;22.10;;;;;;;;;;5079006;22;20708;-79
2020/12/03 00:47:39;;;;;;;43.50;23.60;;;;;;;;;;5062085;28;20267;-78
2020/12/03 00:50:07;;;;;;;53.97;23.97;;;;;;;;;;5057339;28;20750;-79
2020/12/03 00:52:33;;;;;;;47.57;23.60;;;;;;;;;;5057221;28;20266;-79
2020/12/03 00:54:59;;;;;;;48.53;23.20;;;;;;;;;;5056553;28;20263;-79
2020/12/03 00:57:25;;;;;;;47.03;24.90;;;;;;;;;;5059999;28;20263;-79
2020/12/03 00:59:53;;;;;;;47.97;23.73;;;;;;;;;;5070204;28;20262;-79
2020/12/03 01:02:19;;;;;;;47.20;24.00;;;;;;;;;;5057591;28;20298;-79
2020/12/03 01:04:46;;;;;;;46.90;23.93;;;;;;;;;;5069380;28;20317;-79
2020/12/03 01:07:12;;;;;;;42.83;22.30;;;;;;;;;;5057171;28;20263;-79
2020/12/03 01:09:39;;;;;;;53.53;24.77;;;;;;;;;;5056672;28;20283;-79
2020/12/03 01:12:09;;;;;;;49.10;22.37;;;;;;;;;;5074613;28;20323;-79
2020/12/03 01:14:35;;;;;;;49.47;23.90;;;;;;;;;;5074482;28;20255;-80
2020/12/03 01:17:02;;;;;;;48.50;23.73;;;;;;;;;;5075454;28;20665;-79
2020/12/03 01:19:29;;;;;;;42.40;21.53;;;;;;;;;;5057358;28;20735;-79
2020/12/03 01:21:55;;;;;;;46.23;23.30;;;;;;;;;;5074685;28;20723;-79
2020/12/03 01:24:21;;;;;;;50.67;24.07;;;;;;;;;;5053027;28;20369;-79
2020/12/03 01:26:47;;;;;;;48.60;23.57;;;;;;;;;;5073743;28;20392;-79
2020/12/03 01:29:14;;;;;;;46.33;22.77;;;;;;;;;;5072593;28;20286;-79
2020/12/03 01:31:45;;;;;;;42.63;22.73;;;;;;;;;;5072819;28;20267;-79
2020/12/03 01:34:11;;;;;;;46.43;21.73;;;;;;;;;;5056110;28;20274;-79
2020/12/03 01:36:38;;;;;;;46.07;22.10;;;;;;;;;;5059255;28;20702;-79
2020/12/03 01:39:05;;;;;;;46.43;21.63;;;;;;;;;;5072739;28;20391;-79
2020/12/03 01:41:31;;;;;;;42.60;21.40;;;;;;;;;;5058937;28;20277;-78
2020/12/03 01:43:57;;;;;;;40.83;21.83;;;;;;;;;;5055652;28;20383;-79
2020/12/03 01:46:23;;;;;;;44.30;21.93;;;;;;;;;;5056110;28;20715;-79
2020/12/03 01:48:54;;;;;;;45.67;21.13;;;;;;;;;;5058795;28;20785;-79
2020/12/03 01:51:23;;;;;;;45.60;21.23;;;;;;;;;;5060529;28;20282;-79
2020/12/03 01:53:50;;;;;;;42.57;20.63;;;;;;;;;;5066075;28;20270;-79
2020/12/03 01:56:25;;;;;;;42.13;22.33;;;;;;;;;;5065356;28;20259;-79
2020/12/03 01:58:51;;;;;;;46.27;20.67;;;;;;;;;;5048864;28;20743;-79
2020/12/03 02:01:18;;;;;;;50.33;22.40;;;;;;;;;;5055428;28;20274;-79
2020/12/03 02:03:48;;;;;;;48.87;21.97;;;;;;;;;;5056455;28;20759;-79
2020/12/03 02:06:19;;;;;;;46.57;22.03;;;;;;;;;;5051151;28;20275;-79
2020/12/03 02:08:45;;;;;;;48.20;23.50;;;;;;;;;;5056318;28;20283;-80
2020/12/03 02:11:11;;;;;;;46.73;21.97;;;;;;;;;;5061317;28;20317;-81
2020/12/03 02:13:37;;;;;;;45.10;21.30;;;;;;;;;;5062734;28;20259;-79
2020/12/03 02:16:05;;;;;;;47.47;21.87;;;;;;;;;;5065417;28;20266;-79
2020/12/03 02:18:31;;;;;;;46.00;21.20;;;;;;;;;;5062639;28;20263;-79
2020/12/03 02:20:57;;;;;;;41.53;21.03;;;;;;;;;;5058318;28;20353;-79
2020/12/03 02:23:23;;;;;;;46.83;21.73;;;;;;;;;;5074414;28;20263;-79
2020/12/03 02:25:49;;;;;;;46.70;22.80;;;;;;;;;;5062770;28;20825;-77
2020/12/03 02:28:17;;;;;;;48.37;21.17;;;;;;;;;;5067610;28;20285;-79
2020/12/03 02:30:43;;;;;;;50.33;22.27;;;;;;;;;;5060024;28;20278;-79
2020/12/03 02:33:09;;;;;;;41.90;20.40;;;;;;;;;;5073893;28;20731;-79
2020/12/03 02:35:35;;;;;;;46.43;21.30;;;;;;;;;;5061711;28;20257;-79
2020/12/03 02:38:01;;;;;;;48.00;22.83;;;;;;;;;;5067642;28;20271;-79
2020/12/03 02:40:27;;;;;;;46.43;21.43;;;;;;;;;;5070632;28;20294;-79
2020/12/03 02:42:53;;;;;;;44.30;20.77;;;;;;;;;;5062567;28;20278;-79
2020/12/03 02:45:19;;;;;;;43.30;20.97;;;;;;;;;;5063079;28;20275;-79
2020/12/03 02:47:45;;;;;;;47.67;22.00;;;;;;;;;;5062640;28;20328;-79
2020/12/03 02:50:11;;;;;;;41.47;20.87;;;;;;;;;;5073579;28;20267;-79
2020/12/03 02:52:37;;;;;;;48.93;22.70;;;;;;;;;;5061000;28;20776;-79
2020/12/03 02:55:04;;;;;;;46.57;21.83;;;;;;;;;;5053608;28;20404;-79
2020/12/03 02:57:30;;;;;;;47.93;21.17;;;;;;;;;;5074143;28;20271;-79
2020/12/03 02:59:56;;;;;;;42.57;20.43;;;;;;;;;;5067365;28;20278;-79
2020/12/03 03:02:22;;;;;;;41.63;20.13;;;;;;;;;;5062611;28;20274;-79
2020/12/03 03:04:48;;;;;;;42.57;21.20;;;;;;;;;;5066347;28;20259;-79
2020/12/03 03:07:15;;;;;;;41.00;20.63;;;;;;;;;;5057964;28;20366;-79
2020/12/03 03:09:41;;;;;;;43.70;20.33;;;;;;;;;;5063881;28;20282;-79
2020/12/03 03:12:07;;;;;;;44.97;21.40;;;;;;;;;;5058497;28;20367;-79
2020/12/03 03:14:33;;;;;;;40.50;19.83;;;;;;;;;;5053048;28;20271;-79
2020/12/03 03:17:00;;;;;;;47.23;20.43;;;;;;;;;;5060060;28;20303;-79
2020/12/03 03:19:26;;;;;;;40.13;20.30;;;;;;;;;;5062461;28;20261;-79
2020/12/03 03:21:53;;;;;;;44.63;20.37;;;;;;;;;;5073311;28;20298;-79
2020/12/03 03:24:19;;;;;;;48.00;21.93;;;;;;;;;;5066241;28;20255;-79
2020/12/03 03:26:45;;;;;;;41.77;19.90;;;;;;;;;;5063582;28;20972;-78
2020/12/03 03:29:11;;;;;;;36.83;18.20;;;;;;;;;;5066617;28;20427;-79
2020/12/03 03:31:38;;;;;;;41.20;19.97;;;;;;;;;;5068949;28;20270;-79
2020/12/03 03:34:04;;;;;;;45.00;22.53;;;;;;;;;;5063639;28;20299;-79
2020/12/03 03:36:30;;;;;;;45.73;21.83;;;;;;;;;;5065986;28;20275;-79
2020/12/03 03:38:57;;;;;;;44.47;20.27;;;;;;;;;;5066752;28;20685;-79
2020/12/03 03:41:23;;;;;;;42.30;18.93;;;;;;;;;;5056069;28;20697;-79
2020/12/03 03:43:49;;;;;;;44.07;20.17;;;;;;;;;;5059522;28;20773;-79
2020/12/03 03:46:16;;;;;;;44.17;20.80;;;;;;;;;;5060499;28;20286;-79
2020/12/03 03:48:42;;;;;;;43.00;19.87;;;;;;;;;;5056191;28;20282;-79
2020/12/03 03:51:08;;;;;;;41.43;19.97;;;;;;;;;;5067479;28;20556;-78
2020/12/03 03:53:34;;;;;;;40.43;19.53;;;;;;;;;;5068939;28;20258;-79
2020/12/03 03:56:00;;;;;;;40.53;20.37;;;;;;;;;;5068069;28;20266;-79
2020/12/03 03:58:26;;;;;;;38.63;18.43;;;;;;;;;;5070603;28;20273;-79
2020/12/03 04:00:52;;;;;;;45.47;20.23;;;;;;;;;;5078660;28;20319;-80
2020/12/03 04:03:20;;;;;;;46.83;19.77;;;;;;;;;;5067140;28;20273;-79
2020/12/03 04:05:51;;;;;;;42.00;20.50;;;;;;;;;;5073996;28;20267;-80
2020/12/03 04:08:18;;;;;;;48.93;22.07;;;;;;;;;;5075120;28;20290;-79
2020/12/03 04:10:45;;;;;;;48.10;21.47;;;;;;;;;;5058641;28;20348;-79
2020/12/03 04:13:11;;;;;;;58.37;25.10;;;;;;;;;;5059441;28;20255;-79
2020/12/03 04:15:37;;;;;;;53.97;24.00;;;;;;;;;;5070014;28;20365;-79
2020/12/03 04:18:04;;;;;;;52.83;24.03;;;;;;;;;;5068525;28;20785;-80
2020/12/03 04:20:32;;;;;;;54.43;25.53;;;;;;;;;;5065080;28;20302;-79
2020/12/03 04:22:58;;;;;;;52.70;24.67;;;;;;;;;;5067843;28;20267;-79
2020/12/03 04:25:24;;;;;;;51.40;25.60;;;;;;;;;;5075759;28;20298;-79
2020/12/03 04:27:50;;;;;;;49.97;23.17;;;;;;;;;;5072565;28;20274;-79
2020/12/03 04:30:16;;;;;;;49.07;23.80;;;;;;;;;;5074539;28;20285;-79
2020/12/03 04:32:43;;;;;;;66.77;28.93;;;;;;;;;;5072656;28;20346;-79
2020/12/03 04:35:10;;;;;;;53.13;23.53;;;;;;;;;;5061602;28;20881;-79
2020/12/03 04:37:36;;;;;;;49.17;23.43;;;;;;;;;;5066737;28;20363;-79
2020/12/03 04:40:04;;;;;;;56.53;25.07;;;;;;;;;;5069222;28;20958;-79
2020/12/03 04:42:31;;;;;;;52.50;24.93;;;;;;;;;;5076353;28;20255;-79
2020/12/03 04:44:59;;;;;;;54.27;22.80;;;;;;;;;;5072555;28;20290;-79
2020/12/03 04:47:31;;;;;;;48.03;21.83;;;;;;;;;;5072775;28;20778;-79
2020/12/03 04:50:06;;;;;;;55.87;25.27;;;;;;;;;;5059005;28;20337;-79
2020/12/03 04:52:39;;;;;;;55.03;25.43;;;;;;;;;;5074366;28;20267;-79
2020/12/03 04:55:24;;;;;;;56.83;24.58;;;;;;;;;;5070598;28;20266;-79
2020/12/03 04:58:04;;;;;;;48.00;23.93;;;;;;;;;;5075369;28;20031;-79
2020/12/03 05:00:41;;;;;;;52.47;24.70;;;;;;;;;;5067782;28;20294;-79
2020/12/03 05:03:23;;;;;;;57.03;25.57;;;;;;;;;;5059770;28;20259;-79
2020/12/03 05:05:56;;;;;;;53.07;23.37;;;;;;;;;;5064634;28;20259;-79
2020/12/03 05:08:33;;;;;;;54.15;26.23;;;;;;;;;;5058322;28;20313;-79
2020/12/03 05:10:59;;;;;;;51.47;22.97;;;;;;;;;;5074606;28;20706;-79
2020/12/03 05:13:28;;;;;;;53.03;24.23;;;;;;;;;;5061636;28;20759;-79
2020/12/03 05:16:10;;;;;;;51.17;23.90;;;;;;;;;;5056560;28;20283;-80
2020/12/03 05:18:39;;;;;;;62.77;25.53;;;;;;;;;;5073794;28;20266;-79
2020/12/03 05:21:12;;;;;;;55.47;24.67;;;;;;;;;;5074802;28;20310;-79
2020/12/03 05:23:38;;;;;;;58.27;27.10;;;;;;;;;;5074616;28;20327;-79
2020/12/03 05:26:12;;;;;;;55.43;24.17;;;;;;;;;;5063683;28;20301;-79
2020/12/03 05:28:38;;;;;;;52.87;23.23;;;;;;;;;;5056481;28;20785;-79
2020/12/03 05:31:12;;;;;;;61.13;25.47;;;;;;;;;;5062239;28;20267;-78
2020/12/03 05:33:39;;;;;;;63.17;26.30;;;;;;;;;;5085408;28;20264;-79
2020/12/03 05:36:17;;;;;;;57.47;26.03;;;;;;;;;;5069618;28;20961;-78
2020/12/03 05:38:44;;;;;;;55.63;23.87;;;;;;;;;;5050302;28;21033;-79
2020/12/03 05:41:12;;;;;;;55.00;23.73;;;;;;;;;;5055894;28;20404;-79
2020/12/03 05:43:38;;;;;;;50.50;22.70;;;;;;;;;;5061916;28;20365;-79
2020/12/03 05:46:04;;;;;;;53.77;24.33;;;;;;;;;;5056984;28;20271;-79
2020/12/03 05:48:30;;;;;;;49.87;22.93;;;;;;;;;;5064881;28;20846;-77
2020/12/03 05:50:56;;;;;;;50.77;22.33;;;;;;;;;;5060627;28;20281;-77
2020/12/03 05:53:27;;;;;;;49.73;21.90;;;;;;;;;;5071286;28;20259;-77
2020/12/03 05:56:10;;;;;;;53.27;23.07;;;;;;;;;;5071188;28;20290;-77
2020/12/03 05:58:37;;;;;;;53.17;23.20;;;;;;;;;;5053851;28;20273;-77
2020/12/03 06:01:06;;;;;;;52.87;24.03;;;;;;;;;;5071524;28;20074;-76
2020/12/03 06:03:41;;;;;;;52.87;23.17;;;;;;;;;;5061369;28;20271;-77
2020/12/03 06:06:26;;;;;;;47.27;21.63;;;;;;;;;;5057280;28;20320;-77
2020/12/03 06:08:55;;;;;;;50.83;24.23;;;;;;;;;;5061364;28;20294;-76
2020/12/03 06:11:24;;;;;;;66.43;30.07;;;;;;;;;;5053048;28;20320;-76
2020/12/03 06:14:08;;;;;;;83.40;44.10;;;;;;;;;;5056006;28;21056;-76
2020/12/03 06:16:34;;;;;;;51.67;23.73;;;;;;;;;;5039133;28;20259;-77
2020/12/03 06:19:11;;;;;;;53.93;23.73;;;;;;;;;;5053195;28;20042;-76
2020/12/03 06:21:56;;;;;;;48.47;23.20;;;;;;;;;;5060301;28;20267;-76
2020/12/03 06:24:41;;;;;;;47.63;21.47;;;;;;;;;;5052947;28;20255;-76
2020/12/03 06:27:25;;;;;;;51.87;23.47;;;;;;;;;;5065709;28;20255;-76
2020/12/03 06:30:00;;;;;;;48.80;23.33;;;;;;;;;;5056236;28;20781;-77
2020/12/03 06:32:41;;;;;;;54.57;26.57;;;;;;;;;;5053375;28;20262;-76
2020/12/03 06:35:22;;;;;;;50.97;23.43;;;;;;;;;;5061908;28;20263;-76
2020/12/03 06:37:54;;;;;;;53.67;26.23;;;;;;;;;;5052561;28;20358;-77
2020/12/03 06:40:24;;;;;;;49.73;24.40;;;;;;;;;;5058673;28;20643;-76
2020/12/03 06:43:11;;;;;;;50.97;24.47;;;;;;;;;;5071202;28;20251;-76
2020/12/03 06:45:47;;;;;;;49.27;21.97;;;;;;;;;;5063460;28;20680;-78
2020/12/03 06:48:28;;;;;;;54.50;25.07;;;;;;;;;;5052782;28;20469;-77
2020/12/03 06:50:57;;;;;;;51.37;24.57;;;;;;;;;;5047729;28;20269;-76
2020/12/03 06:53:47;;;;;;;53.80;24.77;;;;;;;;;;5069301;28;20780;-77
2020/12/03 06:56:16;;;;;;;54.20;25.93;;;;;;;;;;4998416;28;20270;-77
2020/12/03 06:58:57;;;;;;;60.13;28.30;;;;;;;;;;5053149;28;20274;-79
2020/12/03 07:01:38;;;;;;;52.03;25.00;;;;;;;;;;5052811;28;20344;-76
2020/12/03 07:04:25;;;;;;;57.40;27.27;;;;;;;;;;5052744;28;20762;-77
2020/12/03 07:06:55;;;;;;;51.93;25.10;;;;;;;;;;5059441;28;20250;-77
2020/12/03 07:09:39;;;;;;;52.87;25.67;;;;;;;;;;5059454;28;20308;-76
2020/12/03 07:12:12;;;;;;;53.80;25.70;;;;;;;;;;5055641;28;20268;-77
2020/12/03 07:15:13;;;;;;;62.33;25.87;;;;;;;;;;5053313;28;20266;-77
2020/12/03 07:17:39;;;;;;;52.43;24.30;;;;;;;;;;5051880;28;20259;-76
2020/12/03 07:20:08;;;;;;;52.07;25.93;;;;;;;;;;5052603;28;20312;-76
2020/12/03 07:22:46;;;;;;;51.17;24.70;;;;;;;;;;5052343;28;20278;-77
2020/12/03 07:25:13;;;;;;;53.83;24.13;;;;;;;;;;5068724;28;20269;-77
2020/12/03 07:27:51;;;;;;;53.57;25.90;;;;;;;;;;5060563;28;20274;-77
2020/12/03 07:30:23;;;;;;;50.30;25.70;;;;;;;;;;5059075;28;20282;-76
2020/12/03 07:32:54;;;;;;;53.33;26.27;;;;;;;;;;5059644;28;20274;-76
2020/12/03 07:35:20;;;;;;;51.70;23.20;;;;;;;;;;5055321;28;20621;-76
2020/12/03 07:38:04;;;;;;;56.87;26.10;;;;;;;;;;5052063;28;20267;-76
2020/12/03 07:40:32;;;;;;;54.37;25.93;;;;;;;;;;5086431;28;20816;-77
2020/12/03 07:43:03;;;;;;;58.07;26.63;;;;;;;;;;5052297;28;20282;-78
2020/12/03 07:45:32;;;;;;;49.83;24.60;;;;;;;;;;5052272;28;20283;-77
2020/12/03 07:48:13;;;;;;;50.67;24.50;;;;;;;;;;5052083;28;20358;-77
2020/12/03 07:50:40;;;;;;;56.10;25.07;;;;;;;;;;5070496;28;20931;-77
2020/12/03 07:53:15;;;;;;;52.83;25.30;;;;;;;;;;5050744;28;20259;-76
2020/12/03 07:55:41;;;;;;;58.53;27.60;;;;;;;;;;5063695;28;20295;-76
2020/12/03 07:58:27;;;;;;;55.03;26.60;;;;;;;;;;5058149;28;20981;-76
2020/12/03 08:00:53;;;;;;;56.27;28.13;;;;;;;;;;5059844;28;20262;-76
2020/12/03 08:03:35;;;;;;;48.83;25.37;;;;;;;;;;5060048;28;20259;-76
2020/12/03 08:06:12;;;;;;;53.40;25.63;;;;;;;;;;5053147;28;20677;-76
2020/12/03 08:08:39;;;;;;;55.13;25.50;;;;;;;;;;5061102;28;20283;-76
2020/12/03 08:11:06;;;;;;;52.30;25.73;;;;;;;;;;5060593;28;20323;-77
2020/12/03 08:13:37;;;;;;;50.37;25.87;;;;;;;;;;5052202;28;20340;-75
2020/12/03 08:16:26;;;;;;;58.40;24.87;;;;;;;;;;5069764;28;20270;-76
2020/12/03 08:19:03;;;;;;;47.60;22.93;;;;;;;;;;5061630;28;20278;-76
2020/12/03 08:21:40;;;;;;;52.03;24.57;;;;;;;;;;5057336;28;20635;-77
2020/12/03 08:24:08;;;;;;;48.57;23.53;;;;;;;;;;5059199;28;20336;-76
2020/12/03 08:26:34;;;;;;;51.43;26.27;;;;;;;;;;5052877;28;20274;-77
2020/12/03 08:29:00;;;;;;;44.83;25.63;;;;;;;;;;5069674;28;20795;-76
2020/12/03 08:31:26;;;;;;;49.63;24.23;;;;;;;;;;5059670;28;20350;-77
2020/12/03 08:33:53;;;;;;;54.27;25.57;;;;;;;;;;5054664;28;20344;-75
2020/12/03 08:36:19;;;;;;;45.13;22.97;;;;;;;;;;5050915;28;20362;-75
2020/12/03 08:38:52;;;;;;;46.73;22.97;;;;;;;;;;5057805;28;20351;-76
2020/12/03 08:41:19;;;;;;;44.50;22.13;;;;;;;;;;5063550;28;20267;-75
2020/12/03 08:43:52;;;;;;;44.03;22.87;;;;;;;;;;5058136;28;20281;-76
2020/12/03 08:46:26;;;;;;;44.50;21.58;;;;;;;;;;5064437;28;20673;-76
2020/12/03 08:48:52;;;;;;;48.20;22.60;;;;;;;;;;5068406;28;20032;-76
2020/12/03 08:51:19;;;;;;;68.03;30.00;;;;;;;;;;5061476;28;20635;-76
2020/12/03 08:53:47;;;;;;;67.33;29.93;;;;;;;;;;5068453;28;20273;-76
2020/12/03 08:56:16;;;;;;;49.43;23.57;;;;;;;;;;5064085;28;20270;-76
2020/12/03 08:58:49;;;;;;;43.23;20.73;;;;;;;;;;5058028;28;20262;-77
2020/12/03 09:01:15;;;;;;;38.70;19.97;;;;;;;;;;5071304;28;20254;-76
2020/12/03 09:03:42;;;;;;;34.87;18.53;;;;;;;;;;5068288;28;20263;-76
2020/12/03 09:06:09;;;;;;;33.80;17.60;;;;;;;;;;5072811;28;20324;-75
2020/12/03 09:08:35;;;;;;;33.47;18.07;;;;;;;;;;5048036;28;20272;-76
2020/12/03 09:11:02;;;;;;;37.10;19.33;;;;;;;;;;5057856;28;20308;-76
2020/12/03 09:13:28;;;;;;;35.30;18.27;;;;;;;;;;5054995;28;20282;-75
2020/12/03 09:15:55;;;;;;;32.33;17.97;;;;;;;;;;5065110;28;20247;-76
2020/12/03 09:18:21;;;;;;;35.90;17.30;;;;;;;;;;5071085;28;20255;-75
2020/12/03 09:20:48;;;;;;;30.73;16.93;;;;;;;;;;5072634;28;20274;-76
2020/12/03 09:23:15;;;;;;;33.90;17.33;;;;;;;;;;5072072;28;20255;-76
2020/12/03 09:25:42;;;;;;;34.77;19.47;;;;;;;;;;5068205;28;20654;-75
2020/12/03 09:28:09;;;;;;;32.43;18.20;;;;;;;;;;5061546;28;20291;-75
2020/12/03 09:30:35;;;;;;;35.03;18.80;;;;;;;;;;5072343;28;20735;-75
2020/12/03 09:33:02;;;;;;;32.97;17.87;;;;;;;;;;5072687;28;20255;-75
2020/12/03 09:35:29;;;;;;;33.77;17.43;;;;;;;;;;5071415;28;20273;-76
2020/12/03 09:37:58;;;;;;;29.90;17.20;;;;;;;;;;5061031;28;20259;-77
2020/12/03 09:40:25;;;;;;;29.93;16.07;;;;;;;;;;5072266;28;20322;-76
2020/12/03 09:42:52;;;;;;;26.03;14.83;;;;;;;;;;5072053;28;20255;-76
2020/12/03 09:45:20;;;;;;;27.70;16.50;;;;;;;;;;5054136;28;20300;-76
2020/12/03 09:47:46;;;;;;;26.83;14.93;;;;;;;;;;5066962;28;20715;-76
2020/12/03 09:50:13;;;;;;;27.93;16.87;;;;;;;;;;5070441;28;20258;-76
2020/12/03 09:52:41;;;;;;;26.63;15.00;;;;;;;;;;5054320;28;20265;-77
2020/12/03 09:55:15;;;;;;;25.97;13.17;;;;;;;;;;5071235;28;20267;-76
2020/12/03 09:57:45;;;;;;;23.87;14.83;;;;;;;;;;5052988;28;20263;-76
2020/12/03 10:00:14;;;;;;;21.60;12.87;;;;;;;;;;5070606;28;20274;-75
2020/12/03 10:03:07;;;;;;;24.63;13.80;;;;;;;;;;5053876;28;20269;-77
2020/12/03 10:05:33;;;;;;;24.37;14.67;;;;;;;;;;5030179;28;20271;-76
2020/12/03 10:08:18;;;;;;;26.43;13.73;;;;;;;;;;5069880;28;20337;-75
2020/12/03 10:10:47;;;;;;;24.67;14.00;;;;;;;;;;5064807;28;20833;-75
2020/12/03 10:13:32;;;;;;;23.40;14.03;;;;;;;;;;5055948;28;20260;-76
2020/12/03 10:16:02;;;;;;;22.17;12.67;;;;;;;;;;5057346;28;20611;-76
2020/12/03 10:18:39;;;;;;;22.03;13.20;;;;;;;;;;5053572;28;20974;-76
2020/12/03 10:21:06;;;;;;;24.80;14.47;;;;;;;;;;5065439;28;20615;-75
2020/12/03 10:23:50;;;;;;;20.53;12.37;;;;;;;;;;5058994;28;20678;-75
2020/12/03 10:26:38;;;;;;;23.67;12.87;;;;;;;;;;5052365;28;20268;-75
2020/12/03 10:29:11;;;;;;;21.23;12.60;;;;;;;;;;5052514;28;20314;-76
2020/12/03 10:31:38;;;;;;;14.90;8.80;;;;;;;;;;5052915;28;20274;-76
2020/12/03 10:34:04;;;;;;;19.07;11.67;;;;;;;;;;5068840;28;20103;-76
2020/12/03 10:36:30;;;;;;;18.60;11.03;;;;;;;;;;5060136;28;20271;-75
2020/12/03 10:38:58;;;;;;;19.93;10.73;;;;;;;;;;5064507;28;20267;-75
2020/12/03 10:41:45;;;;;;;19.13;11.17;;;;;;;;;;5062321;28;20267;-76
2020/12/03 10:44:16;;;;;;;20.20;11.53;;;;;;;;;;5058743;28;20338;-75
2020/12/03 10:46:45;;;;;;;16.80;10.47;;;;;;;;;;5070237;28;20665;-75
2020/12/03 10:49:15;;;;;;;19.53;11.33;;;;;;;;;;5062020;28;20344;-74
2020/12/03 10:51:42;;;;;;;19.00;10.57;;;;;;;;;;5070935;28;20270;-75
2020/12/03 10:54:08;;;;;;;22.60;12.40;;;;;;;;;;5069103;28;20278;-75
2020/12/03 10:56:37;;;;;;;20.70;11.43;;;;;;;;;;5062868;28;20810;-75
2020/12/03 10:59:20;;;;;;;19.77;11.80;;;;;;;;;;5051905;28;20607;-75
2020/12/03 11:01:51;;;;;;;19.70;11.83;;;;;;;;;;5060529;28;20263;-75
2020/12/03 11:04:17;;;;;;;21.10;11.67;;;;;;;;;;5064605;28;20277;-75
2020/12/03 11:06:43;;;;;;;23.07;12.67;;;;;;;;;;5062500;28;20270;-75
2020/12/03 11:09:18;;;;;;;24.77;12.63;;;;;;;;;;5058790;28;20794;-76
2020/12/03 11:11:44;;;;;;;22.37;12.90;;;;;;;;;;5070909;28;20267;-77
2020/12/03 11:14:11;;;;;;;25.43;12.80;;;;;;;;;;5069418;28;20350;-76
2020/12/03 11:16:38;;;;;;;21.30;12.90;;;;;;;;;;5055847;28;20263;-76
2020/12/03 11:19:09;;;;;;;18.60;11.07;;;;;;;;;;5070237;28;20962;-76
2020/12/03 11:21:38;;;;;;;22.00;13.17;;;;;;;;;;5052665;28;20263;-76
2020/12/03 11:24:24;;;;;;;23.70;13.53;;;;;;;;;;5065469;28;20310;-76
2020/12/03 11:26:51;;;;;;;20.20;13.17;;;;;;;;;;5062381;28;20766;-77
2020/12/03 11:29:17;;;;;;;22.03;12.53;;;;;;;;;;5075072;28;20294;-78
2020/12/03 11:31:44;;;;;;;24.47;14.93;;;;;;;;;;5063774;28;20263;-78
2020/12/03 11:34:10;;;;;;;27.63;15.67;;;;;;;;;;5051759;28;20258;-78
2020/12/03 11:36:40;;;;;;;27.40;15.57;;;;;;;;;;5049660;28;20270;-76
2020/12/03 11:39:08;;;;;;;24.90;14.70;;;;;;;;;;5076686;28;20270;-77
2020/12/03 11:44:17;;;;;;;24.13;14.23;;;;;;;;;;5063548;28;20294;-76
2020/12/03 11:49:13;;;;;;;22.50;13.33;;;;;;;;;;5066687;28;20386;-76
2020/12/03 11:51:39;;;;;;;21.37;12.47;;;;;;;;;;5067831;28;20266;-75
2020/12/03 11:54:08;;;;;;;21.97;13.03;;;;;;;;;;5054197;28;20334;-76
2020/12/03 11:56:38;;;;;;;24.40;13.23;;;;;;;;;;5065645;28;20274;-77
2020/12/03 11:59:15;;;;;;;21.13;12.70;;;;;;;;;;5065820;28;20270;-76
2020/12/03 12:01:50;;;;;;;20.63;13.23;;;;;;;;;;5058135;28;20333;-76
2020/12/03 12:04:17;;;;;;;20.13;12.10;;;;;;;;;;5050961;28;20295;-76
2020/12/03 12:06:48;;;;;;;20.00;11.57;;;;;;;;;;5068930;28;20400;-76
2020/12/03 12:09:27;;;;;;;24.00;12.10;;;;;;;;;;5062732;28;20813;-76
2020/12/03 12:11:53;;;;;;;23.50;14.33;;;;;;;;;;5067396;28;20254;-76
2020/12/03 12:14:20;;;;;;;21.20;13.20;;;;;;;;;;5069219;28;20346;-76
2020/12/03 12:16:46;;;;;;;22.50;12.20;;;;;;;;;;5069655;28;20258;-76
2020/12/03 12:19:12;;;;;;;19.57;11.50;;;;;;;;;;5056932;28;20328;-76
2020/12/03 12:21:39;;;;;;;20.70;11.93;;;;;;;;;;5070521;28;20291;-76
2020/12/03 12:24:05;;;;;;;18.97;11.20;;;;;;;;;;5066883;28;20274;-76
2020/12/03 12:26:31;;;;;;;19.27;10.70;;;;;;;;;;5068339;28;20636;-76
2020/12/03 12:28:57;;;;;;;18.50;10.93;;;;;;;;;;5069743;28;20279;-78
2020/12/03 12:31:23;;;;;;;21.47;10.67;;;;;;;;;;5062131;28;20259;-76
2020/12/03 12:33:49;;;;;;;17.13;10.47;;;;;;;;;;5073133;28;20362;-75
2020/12/03 12:36:15;;;;;;;23.60;11.70;;;;;;;;;;5051714;28;20263;-75
2020/12/03 12:38:41;;;;;;;20.47;12.30;;;;;;;;;;5069952;28;20259;-76
2020/12/03 12:41:08;;;;;;;18.67;11.20;;;;;;;;;;5069441;28;20258;-76
2020/12/03 12:43:34;;;;;;;17.07;10.87;;;;;;;;;;5072671;28;20782;-76
2020/12/03 12:46:01;;;;;;;19.37;11.23;;;;;;;;;;5055218;28;20275;-77
2020/12/03 12:48:27;;;;;;;23.43;13.23;;;;;;;;;;5044758;28;20283;-77
2020/12/03 12:50:53;;;;;;;17.83;10.43;;;;;;;;;;5057487;28;20342;-76
2020/12/03 12:53:19;;;;;;;15.80;10.03;;;;;;;;;;5054667;28;20259;-76
2020/12/03 12:58:13;;;;;;;16.70;8.97;;;;;;;;;;5089656;22;20310;-75
2020/12/03 13:00:39;;;;;;;16.37;10.73;;;;;;;;;;5054929;28;20270;-76
2020/12/03 13:03:05;;;;;;;15.30;8.67;;;;;;;;;;5066049;28;20025;-75
2020/12/03 13:05:32;;;;;;;16.07;8.77;;;;;;;;;;5053438;28;20045;-75
2020/12/03 13:07:58;;;;;;;11.43;7.10;;;;;;;;;;5066605;28;20021;-75
2020/12/03 13:10:24;;;;;;;14.83;8.70;;;;;;;;;;5057014;28;20506;-75
2020/12/03 13:12:51;;;;;;;17.47;9.13;;;;;;;;;;5051594;28;20036;-74
2020/12/03 13:15:17;;;;;;;17.33;9.50;;;;;;;;;;5063174;28;20024;-75
2020/12/03 13:17:44;;;;;;;18.27;11.37;;;;;;;;;;5071014;28;20021;-74
2020/12/03 13:20:10;;;;;;;17.63;10.83;;;;;;;;;;5063648;28;20726;-74
2020/12/03 13:22:36;;;;;;;17.40;9.80;;;;;;;;;;5069701;28;20263;-75
2020/12/03 13:25:02;;;;;;;16.23;9.73;;;;;;;;;;5061889;28;20416;-74
2020/12/03 13:27:29;;;;;;;18.23;9.43;;;;;;;;;;5063732;28;20314;-74
2020/12/03 13:29:55;;;;;;;17.63;10.60;;;;;;;;;;5061782;28;20293;-76
2020/12/03 13:32:21;;;;;;;19.93;11.27;;;;;;;;;;5062850;28;20264;-74
2020/12/03 13:34:48;;;;;;;16.93;9.33;;;;;;;;;;5055516;28;20835;-74
2020/12/03 13:37:14;;;;;;;16.07;10.00;;;;;;;;;;5061776;28;20742;-74
2020/12/03 13:39:40;;;;;;;16.30;9.73;;;;;;;;;;5067010;28;20833;-74
2020/12/03 13:42:06;;;;;;;26.13;12.97;;;;;;;;;;5070244;28;20267;-74
2020/12/03 13:44:33;;;;;;;16.60;10.17;;;;;;;;;;5062230;28;20271;-72
2020/12/03 13:47:01;;;;;;;43.20;18.90;;;;;;;;;;5067608;28;20812;-74
2020/12/03 13:49:28;;;;;;;26.43;12.80;;;;;;;;;;5069489;28;20311;-74
2020/12/03 13:51:54;;;;;;;18.23;9.93;;;;;;;;;;5063884;28;20877;-75
2020/12/03 13:54:20;;;;;;;15.00;9.80;;;;;;;;;;5055447;28;20608;-74
2020/12/03 13:56:46;;;;;;;35.30;16.20;;;;;;;;;;5050289;28;20264;-75
2020/12/03 13:59:12;;;;;;;23.17;12.53;;;;;;;;;;5056821;28;20630;-74
2020/12/03 14:01:38;;;;;;;24.00;13.03;;;;;;;;;;5062009;28;20256;-74
2020/12/03 14:04:04;;;;;;;20.40;10.63;;;;;;;;;;5063887;28;20534;-76
2020/12/03 14:06:30;;;;;;;28.10;14.30;;;;;;;;;;5069502;28;20263;-76
2020/12/03 14:08:56;;;;;;;20.17;11.70;;;;;;;;;;5069785;28;20329;-79
2020/12/03 14:11:23;;;;;;;19.17;11.23;;;;;;;;;;5057746;28;20278;-76
2020/12/03 14:13:49;;;;;;;23.67;12.63;;;;;;;;;;5060716;28;20271;-75
2020/12/03 14:16:15;;;;;;;21.57;12.77;;;;;;;;;;5069182;28;20350;-75
2020/12/03 14:18:41;;;;;;;21.80;11.70;;;;;;;;;;5070441;28;20306;-75
2020/12/03 14:21:07;;;;;;;20.10;11.70;;;;;;;;;;5071114;28;20336;-76
2020/12/03 14:23:34;;;;;;;18.57;11.03;;;;;;;;;;5059194;28;20515;-76
2020/12/03 14:26:00;;;;;;;21.93;11.90;;;;;;;;;;5067057;28;20332;-75
2020/12/03 14:28:26;;;;;;;20.93;12.03;;;;;;;;;;5065326;28;20714;-75
2020/12/03 14:30:53;;;;;;;25.07;12.90;;;;;;;;;;5063335;28;20357;-73
2020/12/03 14:33:19;;;;;;;25.70;15.77;;;;;;;;;;5058252;28;20835;-75
2020/12/03 14:35:45;;;;;;;27.87;15.43;;;;;;;;;;5069092;28;20271;-75
2020/12/03 14:38:11;;;;;;;27.57;15.73;;;;;;;;;;5064270;28;20348;-73